sensor_id;sensor_type;location;lat;lon;timestamp;pressure;altitude;pressure_sealevel;temperature;humidity
30081;BME280;16902;50.816;12.828;2023-04-28T00:00:47;97901.03;;;2.97;100.00
30081;BME280;16902;50.816;12.828;2023-04-28T00:05:49;97903.72;;;2.86;100.00
30081;BME280;16902;50.816;12.828;2023-04-28T00:10:50;97894.81;;;2.69;100.00
30081;BME280;16902;50.816;12.828;2023-04-28T00:15:53;97892.75;;;2.63;100.00
30081;BME280;16902;50.816;12.828;2023-04-28T00:20:55;97887.47;;;2.64;100.00
30081;BME280;16902;50.816;12.828;2023-04-28T00:25:57;97870.63;;;2.71;100.00
30081;BME280;16902;50.816;12.828;2023-04-28T00:30:59;97875.84;;;2.91;100.00
30081;BME280;16902;50.816;12.828;2023-04-28T00:36:01;97872.53;;;3.09;100.00
30081;BME280;16902;50.816;12.828;2023-04-28T00:41:03;97863.38;;;3.26;100.00
30081;BME280;16902;50.816;12.828;2023-04-28T00:46:06;97854.06;;;3.35;100.00
30081;BME280;16902;50.816;12.828;2023-04-28T00:51:08;97840.81;;;3.40;100.00
30081;BME280;16902;50.816;12.828;2023-04-28T00:56:10;97836.06;;;3.35;100.00
30081;BME280;16902;50.816;12.828;2023-04-28T01:01:13;97832.66;;;3.34;100.00
30081;BME280;16902;50.816;12.828;2023-04-28T01:06:16;97826.31;;;3.39;100.00
30081;BME280;16902;50.816;12.828;2023-04-28T01:11:18;97819.13;;;3.42;100.00
30081;BME280;16902;50.816;12.828;2023-04-28T01:16:38;97822.53;;;3.52;100.00
30081;BME280;16902;50.816;12.828;2023-04-28T01:21:40;97811.56;;;3.60;100.00
30081;BME280;16902;50.816;12.828;2023-04-28T01:26:54;97816.31;;;3.65;100.00
30081;BME280;16902;50.816;12.828;2023-04-28T01:31:56;97813.88;;;3.73;100.00
30081;BME280;16902;50.816;12.828;2023-04-28T01:36:58;97810.75;;;3.89;100.00
30081;BME280;16902;50.816;12.828;2023-04-28T01:42:00;97800.88;;;3.94;100.00
30081;BME280;16902;50.816;12.828;2023-04-28T01:47:03;97799.78;;;3.86;100.00
30081;BME280;16902;50.816;12.828;2023-04-28T01:52:08;97794.75;;;3.66;100.00
30081;BME280;16902;50.816;12.828;2023-04-28T01:57:10;97793.78;;;3.38;100.00
30081;BME280;16902;50.816;12.828;2023-04-28T02:02:12;97791.72;;;3.12;100.00
30081;BME280;16902;50.816;12.828;2023-04-28T02:07:14;97785.09;;;3.09;100.00
30081;BME280;16902;50.816;12.828;2023-04-28T02:12:16;97785.91;;;3.10;100.00
30081;BME280;16902;50.816;12.828;2023-04-28T02:17:18;97784.66;;;3.14;100.00
30081;BME280;16902;50.816;12.828;2023-04-28T02:22:20;97772.66;;;3.24;100.00
30081;BME280;16902;50.816;12.828;2023-04-28T02:27:22;97764.97;;;3.44;100.00
30081;BME280;16902;50.816;12.828;2023-04-28T02:32:24;97763.72;;;3.57;100.00
30081;BME280;16902;50.816;12.828;2023-04-28T02:37:26;97759.69;;;3.74;100.00
30081;BME280;16902;50.816;12.828;2023-04-28T02:42:28;97749.09;;;3.87;100.00
30081;BME280;16902;50.816;12.828;2023-04-28T02:47:30;97751.78;;;3.95;100.00
30081;BME280;16902;50.816;12.828;2023-04-28T02:52:32;97752.31;;;3.99;100.00
30081;BME280;16902;50.816;12.828;2023-04-28T02:57:34;97747.31;;;4.07;100.00
30081;BME280;16902;50.816;12.828;2023-04-28T03:02:37;97746.59;;;4.15;100.00
30081;BME280;16902;50.816;12.828;2023-04-28T03:07:39;97758.94;;;4.21;100.00
30081;BME280;16902;50.816;12.828;2023-04-28T03:12:41;97751.59;;;4.26;100.00
30081;BME280;16902;50.816;12.828;2023-04-28T03:17:43;97746.56;;;4.24;100.00
30081;BME280;16902;50.816;12.828;2023-04-28T03:22:45;97735.28;;;4.25;100.00
30081;BME280;16902;50.816;12.828;2023-04-28T03:27:47;97731.53;;;4.20;100.00
30081;BME280;16902;50.816;12.828;2023-04-28T03:32:49;97724.94;;;4.07;100.00
30081;BME280;16902;50.816;12.828;2023-04-28T03:37:51;97722.47;;;4.06;100.00
30081;BME280;16902;50.816;12.828;2023-04-28T03:42:53;97727.91;;;4.12;100.00
30081;BME280;16902;50.816;12.828;2023-04-28T03:48:01;97717.41;;;4.24;100.00
30081;BME280;16902;50.816;12.828;2023-04-28T03:53:03;97720.91;;;4.32;100.00
30081;BME280;16902;50.816;12.828;2023-04-28T03:58:06;97700.94;;;4.34;100.00
30081;BME280;16902;50.816;12.828;2023-04-28T04:03:08;97691.34;;;4.36;100.00
30081;BME280;16902;50.816;12.828;2023-04-28T04:08:11;97689.41;;;4.38;100.00
30081;BME280;16902;50.816;12.828;2023-04-28T04:13:13;97685.75;;;4.41;100.00
30081;BME280;16902;50.816;12.828;2023-04-28T04:18:17;97680.16;;;4.46;100.00
30081;BME280;16902;50.816;12.828;2023-04-28T04:23:46;97672.97;;;4.39;100.00
30081;BME280;16902;50.816;12.828;2023-04-28T04:28:48;97666.66;;;4.34;100.00
30081;BME280;16902;50.816;12.828;2023-04-28T04:33:50;97670.75;;;4.27;100.00
30081;BME280;16902;50.816;12.828;2023-04-28T04:38:54;97667.78;;;4.22;100.00
30081;BME280;16902;50.816;12.828;2023-04-28T04:43:56;97672.38;;;4.28;100.00
30081;BME280;16902;50.816;12.828;2023-04-28T04:49:03;97665.91;;;4.51;100.00
30081;BME280;16902;50.816;12.828;2023-04-28T04:54:05;97658.38;;;4.85;100.00
30081;BME280;16902;50.816;12.828;2023-04-28T04:59:10;97655.78;;;5.21;100.00
30081;BME280;16902;50.816;12.828;2023-04-28T05:04:23;97648.66;;;5.59;100.00
30081;BME280;16902;50.816;12.828;2023-04-28T05:09:26;97646.50;;;5.98;100.00
30081;BME280;16902;50.816;12.828;2023-04-28T05:14:28;97645.41;;;6.43;100.00
30081;BME280;16902;50.816;12.828;2023-04-28T05:19:30;97640.81;;;6.71;100.00
30081;BME280;16902;50.816;12.828;2023-04-28T05:24:32;97648.28;;;6.90;100.00
30081;BME280;16902;50.816;12.828;2023-04-28T05:29:35;97649.44;;;7.04;100.00
30081;BME280;16902;50.816;12.828;2023-04-28T05:34:37;97639.13;;;7.20;100.00
30081;BME280;16902;50.816;12.828;2023-04-28T05:39:39;97641.56;;;7.46;100.00
30081;BME280;16902;50.816;12.828;2023-04-28T05:44:41;97646.06;;;7.69;100.00
30081;BME280;16902;50.816;12.828;2023-04-28T05:49:44;97639.88;;;7.94;100.00
30081;BME280;16902;50.816;12.828;2023-04-28T05:54:46;97642.38;;;8.19;100.00
30081;BME280;16902;50.816;12.828;2023-04-28T05:59:48;97635.13;;;8.54;100.00
30081;BME280;16902;50.816;12.828;2023-04-28T06:04:50;97625.78;;;8.98;100.00
30081;BME280;16902;50.816;12.828;2023-04-28T06:09:52;97622.63;;;9.11;100.00
30081;BME280;16902;50.816;12.828;2023-04-28T06:14:54;97619.19;;;9.19;100.00
30081;BME280;16902;50.816;12.828;2023-04-28T06:19:59;97631.13;;;9.81;100.00
30081;BME280;16902;50.816;12.828;2023-04-28T06:25:01;97620.84;;;10.32;100.00
30081;BME280;16902;50.816;12.828;2023-04-28T06:30:08;97615.66;;;10.68;100.00
30081;BME280;16902;50.816;12.828;2023-04-28T06:35:10;97610.84;;;10.86;100.00
30081;BME280;16902;50.816;12.828;2023-04-28T06:40:13;97607.41;;;11.22;100.00
30081;BME280;16902;50.816;12.828;2023-04-28T06:45:21;97611.56;;;11.66;100.00
30081;BME280;16902;50.816;12.828;2023-04-28T06:50:23;97607.63;;;12.11;100.00
30081;BME280;16902;50.816;12.828;2023-04-28T06:55:25;97619.19;;;12.37;100.00
30081;BME280;16902;50.816;12.828;2023-04-28T07:00:27;97608.06;;;12.69;100.00
30081;BME280;16902;50.816;12.828;2023-04-28T07:05:29;97611.97;;;13.20;100.00
30081;BME280;16902;50.816;12.828;2023-04-28T07:10:31;97603.78;;;13.69;100.00
30081;BME280;16902;50.816;12.828;2023-04-28T07:15:33;97595.09;;;13.75;100.00
30081;BME280;16902;50.816;12.828;2023-04-28T07:20:35;97595.69;;;13.77;100.00
30081;BME280;16902;50.816;12.828;2023-04-28T07:25:37;97585.00;;;13.92;100.00
30081;BME280;16902;50.816;12.828;2023-04-28T07:30:41;97586.75;;;14.18;100.00
30081;BME280;16902;50.816;12.828;2023-04-28T07:35:43;97584.53;;;14.15;100.00
30081;BME280;16902;50.816;12.828;2023-04-28T07:40:45;97583.44;;;14.49;100.00
30081;BME280;16902;50.816;12.828;2023-04-28T07:45:47;97582.91;;;14.72;100.00
30081;BME280;16902;50.816;12.828;2023-04-28T07:50:50;97590.38;;;14.75;100.00
30081;BME280;16902;50.816;12.828;2023-04-28T07:55:53;97598.06;;;14.70;100.00
30081;BME280;16902;50.816;12.828;2023-04-28T08:00:55;97585.31;;;14.74;100.00
30081;BME280;16902;50.816;12.828;2023-04-28T08:05:57;97593.63;;;15.02;100.00
30081;BME280;16902;50.816;12.828;2023-04-28T08:11:00;97594.16;;;14.79;100.00
30081;BME280;16902;50.816;12.828;2023-04-28T08:16:02;97593.00;;;14.17;100.00
30081;BME280;16902;50.816;12.828;2023-04-28T08:21:04;97590.41;;;14.10;100.00
30081;BME280;16902;50.816;12.828;2023-04-28T08:26:06;97587.44;;;13.94;100.00
30081;BME280;16902;50.816;12.828;2023-04-28T08:31:08;97588.66;;;14.49;100.00
30081;BME280;16902;50.816;12.828;2023-04-28T08:36:10;97577.88;;;15.02;100.00
30081;BME280;16902;50.816;12.828;2023-04-28T08:41:15;97588.09;;;14.85;100.00
30081;BME280;16902;50.816;12.828;2023-04-28T08:46:20;97590.53;;;14.80;100.00
30081;BME280;16902;50.816;12.828;2023-04-28T08:51:32;97599.94;;;14.56;100.00
30081;BME280;16902;50.816;12.828;2023-04-28T08:56:34;97597.66;;;14.02;100.00
30081;BME280;16902;50.816;12.828;2023-04-28T09:01:36;97589.28;;;13.67;100.00
30081;BME280;16902;50.816;12.828;2023-04-28T09:06:38;97592.44;;;14.08;100.00
30081;BME280;16902;50.816;12.828;2023-04-28T09:12:01;97601.59;;;14.37;100.00
30081;BME280;16902;50.816;12.828;2023-04-28T09:17:12;97602.28;;;14.06;100.00
30081;BME280;16902;50.816;12.828;2023-04-28T09:22:14;97607.34;;;14.08;100.00
30081;BME280;16902;50.816;12.828;2023-04-28T09:27:27;97604.19;;;13.40;100.00
30081;BME280;16902;50.816;12.828;2023-04-28T09:32:30;97595.94;;;13.23;100.00
30081;BME280;16902;50.816;12.828;2023-04-28T09:37:34;97598.75;;;13.28;100.00
30081;BME280;16902;50.816;12.828;2023-04-28T09:42:37;97595.09;;;13.16;100.00
30081;BME280;16902;50.816;12.828;2023-04-28T09:47:41;97598.69;;;13.15;100.00
30081;BME280;16902;50.816;12.828;2023-04-28T09:52:52;97597.41;;;12.71;100.00
30081;BME280;16902;50.816;12.828;2023-04-28T09:58:02;97599.38;;;12.55;100.00
30081;BME280;16902;50.816;12.828;2023-04-28T10:03:07;97607.38;;;11.99;100.00
30081;BME280;16902;50.816;12.828;2023-04-28T10:08:10;97601.13;;;11.66;100.00
30081;BME280;16902;50.816;12.828;2023-04-28T10:13:18;97598.69;;;11.64;100.00
30081;BME280;16902;50.816;12.828;2023-04-28T10:18:22;97605.50;;;11.65;100.00
30081;BME280;16902;50.816;12.828;2023-04-28T10:28:49;97605.84;;;12.18;100.00
30081;BME280;16902;50.816;12.828;2023-04-28T10:33:52;97599.34;;;12.01;100.00
30081;BME280;16902;50.816;12.828;2023-04-28T10:39:08;97591.66;;;11.65;100.00
30081;BME280;16902;50.816;12.828;2023-04-28T10:55:28;97576.22;;;11.35;100.00
30081;BME280;16902;50.816;12.828;2023-04-28T11:00:33;97568.72;;;11.53;100.00
30081;BME280;16902;50.816;12.828;2023-04-28T11:05:35;97550.53;;;11.32;100.00
30081;BME280;16902;50.816;12.828;2023-04-28T11:11:15;97546.69;;;11.28;100.00
30081;BME280;16902;50.816;12.828;2023-04-28T11:16:20;97543.06;;;11.22;100.00
30081;BME280;16902;50.816;12.828;2023-04-28T11:21:24;97547.31;;;11.30;100.00
30081;BME280;16902;50.816;12.828;2023-04-28T11:26:26;97535.53;;;11.41;100.00
30081;BME280;16902;50.816;12.828;2023-04-28T11:31:28;97545.72;;;11.36;100.00
30081;BME280;16902;50.816;12.828;2023-04-28T11:36:35;97544.25;;;11.54;100.00
30081;BME280;16902;50.816;12.828;2023-04-28T11:41:47;97534.16;;;11.73;100.00
30081;BME280;16902;50.816;12.828;2023-04-28T11:47:00;97535.72;;;12.02;100.00
30081;BME280;16902;50.816;12.828;2023-04-28T11:52:05;97534.47;;;12.46;100.00
30081;BME280;16902;50.816;12.828;2023-04-28T11:57:16;97530.50;;;12.63;100.00
30081;BME280;16902;50.816;12.828;2023-04-28T12:02:26;97525.28;;;12.70;100.00
30081;BME280;16902;50.816;12.828;2023-04-28T12:07:40;97514.47;;;12.73;100.00
30081;BME280;16902;50.816;12.828;2023-04-28T12:12:43;97524.31;;;12.84;100.00
30081;BME280;16902;50.816;12.828;2023-04-28T12:17:53;97518.09;;;13.31;100.00
30081;BME280;16902;50.816;12.828;2023-04-28T12:22:55;97509.81;;;12.75;100.00
30081;BME280;16902;50.816;12.828;2023-04-28T12:28:02;97500.78;;;13.17;100.00
30081;BME280;16902;50.816;12.828;2023-04-28T12:33:04;97495.34;;;13.52;100.00
30081;BME280;16902;50.816;12.828;2023-04-28T12:38:10;97483.94;;;13.26;100.00
30081;BME280;16902;50.816;12.828;2023-04-28T12:43:12;97478.28;;;12.96;100.00
30081;BME280;16902;50.816;12.828;2023-04-28T12:48:14;97471.22;;;12.57;100.00
30081;BME280;16902;50.816;12.828;2023-04-28T12:53:18;97475.69;;;13.23;100.00
30081;BME280;16902;50.816;12.828;2023-04-28T12:58:20;97470.13;;;13.71;100.00
30081;BME280;16902;50.816;12.828;2023-04-28T13:03:21;97474.03;;;13.55;100.00
30081;BME280;16902;50.816;12.828;2023-04-28T13:08:24;97475.25;;;12.79;100.00
30081;BME280;16902;50.816;12.828;2023-04-28T13:13:25;97472.81;;;12.51;100.00
30081;BME280;16902;50.816;12.828;2023-04-28T13:18:27;97470.28;;;12.03;100.00
30081;BME280;16902;50.816;12.828;2023-04-28T13:23:30;97468.84;;;11.88;100.00
30081;BME280;16902;50.816;12.828;2023-04-28T13:28:32;97463.84;;;11.86;100.00
30081;BME280;16902;50.816;12.828;2023-04-28T13:33:34;97461.47;;;11.56;100.00
30081;BME280;16902;50.816;12.828;2023-04-28T13:38:36;97451.03;;;11.56;100.00
30081;BME280;16902;50.816;12.828;2023-04-28T13:43:38;97442.63;;;11.61;100.00
30081;BME280;16902;50.816;12.828;2023-04-28T13:48:40;97439.28;;;11.32;100.00
30081;BME280;16902;50.816;12.828;2023-04-28T13:53:42;97436.03;;;11.30;100.00
30081;BME280;16902;50.816;12.828;2023-04-28T13:58:44;97421.28;;;11.10;100.00
30081;BME280;16902;50.816;12.828;2023-04-28T14:03:46;97420.28;;;11.11;100.00
30081;BME280;16902;50.816;12.828;2023-04-28T14:08:48;97418.47;;;11.46;100.00
30081;BME280;16902;50.816;12.828;2023-04-28T14:13:50;97415.22;;;11.78;100.00
30081;BME280;16902;50.816;12.828;2023-04-28T14:18:51;97410.34;;;12.30;100.00
30081;BME280;16902;50.816;12.828;2023-04-28T14:23:53;97414.66;;;11.83;100.00
30081;BME280;16902;50.816;12.828;2023-04-28T14:28:55;97404.72;;;11.65;100.00
30081;BME280;16902;50.816;12.828;2023-04-28T14:33:57;97404.91;;;11.64;100.00
30081;BME280;16902;50.816;12.828;2023-04-28T14:38:59;97393.25;;;11.46;100.00
30081;BME280;16902;50.816;12.828;2023-04-28T14:44:02;97389.34;;;11.77;100.00
30081;BME280;16902;50.816;12.828;2023-04-28T14:49:03;97383.59;;;12.08;100.00
30081;BME280;16902;50.816;12.828;2023-04-28T14:54:07;97378.63;;;12.73;100.00
30081;BME280;16902;50.816;12.828;2023-04-28T14:59:10;97363.75;;;12.86;100.00
30081;BME280;16902;50.816;12.828;2023-04-28T15:04:12;97356.53;;;12.55;100.00
30081;BME280;16902;50.816;12.828;2023-04-28T15:09:14;97364.38;;;12.55;100.00
30081;BME280;16902;50.816;12.828;2023-04-28T15:14:16;97358.31;;;12.61;100.00
30081;BME280;16902;50.816;12.828;2023-04-28T15:19:18;97359.94;;;12.69;100.00
30081;BME280;16902;50.816;12.828;2023-04-28T15:24:20;97360.56;;;12.45;100.00
30081;BME280;16902;50.816;12.828;2023-04-28T15:29:22;97357.34;;;12.36;100.00
30081;BME280;16902;50.816;12.828;2023-04-28T15:34:24;97350.31;;;12.23;100.00
30081;BME280;16902;50.816;12.828;2023-04-28T15:39:26;97345.88;;;12.11;100.00
30081;BME280;16902;50.816;12.828;2023-04-28T15:44:29;97339.47;;;12.06;100.00
30081;BME280;16902;50.816;12.828;2023-04-28T15:49:31;97336.44;;;12.16;100.00
30081;BME280;16902;50.816;12.828;2023-04-28T15:54:33;97336.44;;;12.23;100.00
30081;BME280;16902;50.816;12.828;2023-04-28T15:59:35;97339.06;;;12.09;100.00
30081;BME280;16902;50.816;12.828;2023-04-28T16:04:37;97329.84;;;12.14;100.00
30081;BME280;16902;50.816;12.828;2023-04-28T16:09:39;97332.22;;;12.02;100.00
30081;BME280;16902;50.816;12.828;2023-04-28T16:14:41;97342.84;;;11.94;100.00
30081;BME280;16902;50.816;12.828;2023-04-28T16:19:43;97335.00;;;11.87;100.00
30081;BME280;16902;50.816;12.828;2023-04-28T16:24:45;97333.44;;;11.99;100.00
30081;BME280;16902;50.816;12.828;2023-04-28T16:29:48;97334.59;;;11.83;100.00
30081;BME280;16902;50.816;12.828;2023-04-28T16:34:50;97333.34;;;11.73;100.00
30081;BME280;16902;50.816;12.828;2023-04-28T16:39:53;97343.13;;;11.57;100.00
30081;BME280;16902;50.816;12.828;2023-04-28T16:44:55;97333.50;;;11.51;100.00
30081;BME280;16902;50.816;12.828;2023-04-28T16:49:57;97335.69;;;11.48;100.00
30081;BME280;16902;50.816;12.828;2023-04-28T16:54:58;97337.84;;;11.38;100.00
30081;BME280;16902;50.816;12.828;2023-04-28T17:00:01;97328.41;;;11.30;100.00
30081;BME280;16902;50.816;12.828;2023-04-28T17:05:03;97321.78;;;11.27;100.00
30081;BME280;16902;50.816;12.828;2023-04-28T17:10:07;97336.41;;;11.22;100.00
30081;BME280;16902;50.816;12.828;2023-04-28T17:15:13;97324.91;;;11.10;100.00
30081;BME280;16902;50.816;12.828;2023-04-28T17:20:15;97317.59;;;10.92;100.00
30081;BME280;16902;50.816;12.828;2023-04-28T17:25:21;97321.97;;;10.85;100.00
30081;BME280;16902;50.816;12.828;2023-04-28T17:30:23;97326.53;;;10.76;100.00
30081;BME280;16902;50.816;12.828;2023-04-28T17:35:26;97332.53;;;10.76;100.00
30081;BME280;16902;50.816;12.828;2023-04-28T17:40:28;97313.50;;;10.76;100.00
30081;BME280;16902;50.816;12.828;2023-04-28T17:45:33;97318.28;;;10.72;100.00
30081;BME280;16902;50.816;12.828;2023-04-28T17:50:35;97316.47;;;10.73;100.00
30081;BME280;16902;50.816;12.828;2023-04-28T17:55:37;97319.72;;;10.75;100.00
30081;BME280;16902;50.816;12.828;2023-04-28T18:00:39;97315.84;;;10.64;100.00
30081;BME280;16902;50.816;12.828;2023-04-28T18:05:41;97329.44;;;10.60;100.00
30081;BME280;16902;50.816;12.828;2023-04-28T18:10:43;97330.00;;;10.55;100.00
30081;BME280;16902;50.816;12.828;2023-04-28T18:15:45;97320.19;;;10.57;100.00
30081;BME280;16902;50.816;12.828;2023-04-28T18:20:46;97320.94;;;10.44;100.00
30081;BME280;16902;50.816;12.828;2023-04-28T18:25:48;97325.81;;;10.33;100.00
30081;BME280;16902;50.816;12.828;2023-04-28T18:30:50;97324.66;;;10.35;100.00
30081;BME280;16902;50.816;12.828;2023-04-28T18:35:59;97327.75;;;10.45;100.00
30081;BME280;16902;50.816;12.828;2023-04-28T18:41:14;97326.03;;;10.59;100.00
30081;BME280;16902;50.816;12.828;2023-04-28T18:46:17;97334.19;;;10.84;100.00
30081;BME280;16902;50.816;12.828;2023-04-28T18:51:19;97334.31;;;10.69;100.00
30081;BME280;16902;50.816;12.828;2023-04-28T18:56:21;97337.28;;;10.66;100.00
30081;BME280;16902;50.816;12.828;2023-04-28T19:01:24;97339.09;;;10.66;100.00
30081;BME280;16902;50.816;12.828;2023-04-28T19:06:28;97329.44;;;10.60;100.00
30081;BME280;16902;50.816;12.828;2023-04-28T19:11:30;97335.25;;;10.62;100.00
30081;BME280;16902;50.816;12.828;2023-04-28T19:16:34;97333.00;;;10.59;100.00
30081;BME280;16902;50.816;12.828;2023-04-28T19:21:40;97322.56;;;10.52;100.00
30081;BME280;16902;50.816;12.828;2023-04-28T19:26:42;97329.56;;;10.51;100.00
30081;BME280;16902;50.816;12.828;2023-04-28T19:31:44;97331.19;;;10.52;100.00
30081;BME280;16902;50.816;12.828;2023-04-28T19:36:46;97326.78;;;10.53;100.00
30081;BME280;16902;50.816;12.828;2023-04-28T19:41:48;97334.22;;;10.56;100.00
30081;BME280;16902;50.816;12.828;2023-04-28T19:46:51;97317.25;;;10.39;100.00
30081;BME280;16902;50.816;12.828;2023-04-28T19:51:53;97322.16;;;10.05;100.00
30081;BME280;16902;50.816;12.828;2023-04-28T19:56:55;97312.53;;;9.78;100.00
30081;BME280;16902;50.816;12.828;2023-04-28T20:01:57;97312.38;;;9.65;100.00
30081;BME280;16902;50.816;12.828;2023-04-28T20:06:59;97310.22;;;9.68;100.00
30081;BME280;16902;50.816;12.828;2023-04-28T20:12:06;97315.13;;;9.78;100.00
30081;BME280;16902;50.816;12.828;2023-04-28T20:17:08;97315.25;;;9.91;100.00
30081;BME280;16902;50.816;12.828;2023-04-28T20:22:10;97316.31;;;9.97;100.00
30081;BME280;16902;50.816;12.828;2023-04-28T20:27:12;97318.44;;;10.15;100.00
30081;BME280;16902;50.816;12.828;2023-04-28T20:32:14;97315.09;;;10.21;100.00
30081;BME280;16902;50.816;12.828;2023-04-28T20:37:16;97311.28;;;10.17;100.00
30081;BME280;16902;50.816;12.828;2023-04-28T20:42:20;97302.75;;;10.01;100.00
30081;BME280;16902;50.816;12.828;2023-04-28T20:47:22;97296.88;;;9.93;100.00
30081;BME280;16902;50.816;12.828;2023-04-28T20:52:24;97298.59;;;9.86;100.00
30081;BME280;16902;50.816;12.828;2023-04-28T20:57:26;97284.59;;;9.65;100.00
30081;BME280;16902;50.816;12.828;2023-04-28T21:02:28;97281.56;;;9.62;100.00
30081;BME280;16902;50.816;12.828;2023-04-28T21:07:30;97292.56;;;9.42;100.00
30081;BME280;16902;50.816;12.828;2023-04-28T21:12:34;97289.69;;;9.16;100.00
30081;BME280;16902;50.816;12.828;2023-04-28T21:17:36;97303.31;;;8.88;100.00
30081;BME280;16902;50.816;12.828;2023-04-28T21:22:38;97294.38;;;8.76;100.00
30081;BME280;16902;50.816;12.828;2023-04-28T21:27:40;97289.00;;;8.78;100.00
30081;BME280;16902;50.816;12.828;2023-04-28T21:32:42;97290.34;;;8.73;100.00
30081;BME280;16902;50.816;12.828;2023-04-28T21:37:44;97284.53;;;8.71;100.00
30081;BME280;16902;50.816;12.828;2023-04-28T21:42:46;97293.47;;;8.69;100.00
30081;BME280;16902;50.816;12.828;2023-04-28T21:47:47;97291.84;;;8.83;100.00
30081;BME280;16902;50.816;12.828;2023-04-28T21:52:49;97297.13;;;8.89;100.00
30081;BME280;16902;50.816;12.828;2023-04-28T21:57:52;97291.41;;;8.79;100.00
30081;BME280;16902;50.816;12.828;2023-04-28T22:02:55;97285.22;;;8.65;100.00
30081;BME280;16902;50.816;12.828;2023-04-28T22:07:59;97286.84;;;8.66;100.00
30081;BME280;16902;50.816;12.828;2023-04-28T22:13:02;97284.59;;;8.93;100.00
30081;BME280;16902;50.816;12.828;2023-04-28T22:18:04;97272.44;;;8.79;100.00
30081;BME280;16902;50.816;12.828;2023-04-28T22:23:08;97272.00;;;8.90;100.00
30081;BME280;16902;50.816;12.828;2023-04-28T22:28:10;97281.97;;;9.08;100.00
30081;BME280;16902;50.816;12.828;2023-04-28T22:33:12;97280.91;;;9.02;100.00
30081;BME280;16902;50.816;12.828;2023-04-28T22:38:13;97268.75;;;9.02;100.00
30081;BME280;16902;50.816;12.828;2023-04-28T22:43:15;97273.22;;;8.94;100.00
30081;BME280;16902;50.816;12.828;2023-04-28T22:48:17;97265.91;;;8.53;100.00
30081;BME280;16902;50.816;12.828;2023-04-28T22:53:19;97263.00;;;8.18;100.00
30081;BME280;16902;50.816;12.828;2023-04-28T22:58:21;97264.25;;;8.22;100.00
30081;BME280;16902;50.816;12.828;2023-04-28T23:03:23;97261.03;;;8.35;100.00
30081;BME280;16902;50.816;12.828;2023-04-28T23:08:25;97249.88;;;8.49;100.00
30081;BME280;16902;50.816;12.828;2023-04-28T23:13:27;97258.94;;;8.54;100.00
30081;BME280;16902;50.816;12.828;2023-04-28T23:18:31;97251.94;;;8.54;100.00
30081;BME280;16902;50.816;12.828;2023-04-28T23:23:33;97254.19;;;8.57;100.00
30081;BME280;16902;50.816;12.828;2023-04-28T23:28:35;97247.22;;;8.72;100.00
30081;BME280;16902;50.816;12.828;2023-04-28T23:33:37;97246.47;;;8.79;100.00
30081;BME280;16902;50.816;12.828;2023-04-28T23:38:38;97246.53;;;9.15;100.00
30081;BME280;16902;50.816;12.828;2023-04-28T23:43:40;97254.13;;;9.38;100.00
30081;BME280;16902;50.816;12.828;2023-04-28T23:48:42;97257.91;;;9.35;100.00
30081;BME280;16902;50.816;12.828;2023-04-28T23:53:44;97263.97;;;9.21;100.00
30081;BME280;16902;50.816;12.828;2023-04-28T23:58:46;97254.75;;;9.04;100.00
